sensor_id;sensor_type;location;lat;lon;timestamp;P1;durP1;ratioP1;P2;durP2;ratioP2
77146;SDS011;66121;52.584;9.694;2023-05-02T00:00:24;5.00;;;2.88;;
77146;SDS011;66121;52.584;9.694;2023-05-02T00:02:50;4.57;;;3.10;;
77146;SDS011;66121;52.584;9.694;2023-05-02T00:05:15;6.73;;;2.80;;
77146;SDS011;66121;52.584;9.694;2023-05-02T00:07:40;4.15;;;3.05;;
77146;SDS011;66121;52.584;9.694;2023-05-02T00:10:06;4.85;;;3.08;;
77146;SDS011;66121;52.584;9.694;2023-05-02T00:12:32;5.25;;;3.20;;
77146;SDS011;66121;52.584;9.694;2023-05-02T00:14:57;6.22;;;3.15;;
77146;SDS011;66121;52.584;9.694;2023-05-02T00:17:26;5.78;;;3.25;;
77146;SDS011;66121;52.584;9.694;2023-05-02T00:19:51;6.17;;;3.50;;
77146;SDS011;66121;52.584;9.694;2023-05-02T00:22:16;7.73;;;3.47;;
77146;SDS011;66121;52.584;9.694;2023-05-02T00:24:41;6.07;;;3.20;;
77146;SDS011;66121;52.584;9.694;2023-05-02T00:27:07;5.15;;;3.42;;
77146;SDS011;66121;52.584;9.694;2023-05-02T00:29:32;6.13;;;3.38;;
77146;SDS011;66121;52.584;9.694;2023-05-02T00:31:57;5.17;;;3.97;;
77146;SDS011;66121;52.584;9.694;2023-05-02T00:34:27;6.10;;;3.50;;
77146;SDS011;66121;52.584;9.694;2023-05-02T00:36:53;6.65;;;3.42;;
77146;SDS011;66121;52.584;9.694;2023-05-02T00:39:18;6.53;;;3.83;;
77146;SDS011;66121;52.584;9.694;2023-05-02T00:41:44;7.87;;;3.90;;
77146;SDS011;66121;52.584;9.694;2023-05-02T00:44:09;9.95;;;4.80;;
77146;SDS011;66121;52.584;9.694;2023-05-02T00:46:34;8.53;;;4.30;;
77146;SDS011;66121;52.584;9.694;2023-05-02T00:49:00;7.60;;;3.90;;
77146;SDS011;66121;52.584;9.694;2023-05-02T00:51:25;8.93;;;4.53;;
77146;SDS011;66121;52.584;9.694;2023-05-02T00:53:51;7.70;;;4.20;;
77146;SDS011;66121;52.584;9.694;2023-05-02T00:56:16;9.25;;;4.13;;
77146;SDS011;66121;52.584;9.694;2023-05-02T00:58:42;12.30;;;4.50;;
77146;SDS011;66121;52.584;9.694;2023-05-02T01:03:59;8.93;;;5.22;;
77146;SDS011;66121;52.584;9.694;2023-05-02T01:14:17;12.13;;;6.35;;
77146;SDS011;66121;52.584;9.694;2023-05-02T01:16:45;13.10;;;6.45;;
77146;SDS011;66121;52.584;9.694;2023-05-02T01:19:18;11.70;;;5.78;;
77146;SDS011;66121;52.584;9.694;2023-05-02T01:21:49;10.45;;;6.32;;
77146;SDS011;66121;52.584;9.694;2023-05-02T01:24:27;11.18;;;6.10;;
77146;SDS011;66121;52.584;9.694;2023-05-02T01:29:37;12.95;;;6.18;;
77146;SDS011;66121;52.584;9.694;2023-05-02T01:32:04;9.27;;;5.68;;
77146;SDS011;66121;52.584;9.694;2023-05-02T01:34:31;10.73;;;5.85;;
77146;SDS011;66121;52.584;9.694;2023-05-02T01:36:58;9.95;;;5.88;;
77146;SDS011;66121;52.584;9.694;2023-05-02T01:39:26;15.35;;;7.40;;
77146;SDS011;66121;52.584;9.694;2023-05-02T01:41:52;16.30;;;6.72;;
77146;SDS011;66121;52.584;9.694;2023-05-02T01:44:20;15.90;;;6.97;;
77146;SDS011;66121;52.584;9.694;2023-05-02T01:46:47;11.77;;;7.10;;
77146;SDS011;66121;52.584;9.694;2023-05-02T01:49:15;12.60;;;6.93;;
77146;SDS011;66121;52.584;9.694;2023-05-02T01:51:43;13.90;;;7.13;;
77146;SDS011;66121;52.584;9.694;2023-05-02T01:54:10;14.02;;;7.93;;
77146;SDS011;66121;52.584;9.694;2023-05-02T01:56:38;14.20;;;8.60;;
77146;SDS011;66121;52.584;9.694;2023-05-02T01:59:08;17.27;;;8.68;;
77146;SDS011;66121;52.584;9.694;2023-05-02T02:01:37;15.85;;;8.48;;
77146;SDS011;66121;52.584;9.694;2023-05-02T02:04:04;15.25;;;8.90;;
77146;SDS011;66121;52.584;9.694;2023-05-02T02:06:31;18.75;;;9.88;;
77146;SDS011;66121;52.584;9.694;2023-05-02T02:08:56;16.67;;;9.52;;
77146;SDS011;66121;52.584;9.694;2023-05-02T02:11:45;19.13;;;10.63;;
77146;SDS011;66121;52.584;9.694;2023-05-02T02:14:20;18.50;;;10.35;;
77146;SDS011;66121;52.584;9.694;2023-05-02T02:16:49;21.02;;;11.35;;
77146;SDS011;66121;52.584;9.694;2023-05-02T02:19:17;21.23;;;11.68;;
77146;SDS011;66121;52.584;9.694;2023-05-02T02:21:44;21.73;;;13.27;;
77146;SDS011;66121;52.584;9.694;2023-05-02T02:24:12;19.27;;;10.63;;
77146;SDS011;66121;52.584;9.694;2023-05-02T02:26:40;22.45;;;12.23;;
77146;SDS011;66121;52.584;9.694;2023-05-02T02:29:05;24.13;;;12.63;;
77146;SDS011;66121;52.584;9.694;2023-05-02T02:31:34;24.37;;;13.53;;
77146;SDS011;66121;52.584;9.694;2023-05-02T02:34:01;29.60;;;15.73;;
77146;SDS011;66121;52.584;9.694;2023-05-02T02:36:35;27.70;;;14.20;;
77146;SDS011;66121;52.584;9.694;2023-05-02T02:39:24;23.08;;;13.30;;
77146;SDS011;66121;52.584;9.694;2023-05-02T02:44:54;23.33;;;12.65;;
77146;SDS011;66121;52.584;9.694;2023-05-02T02:47:31;28.10;;;13.60;;
77146;SDS011;66121;52.584;9.694;2023-05-02T02:50:22;31.30;;;15.30;;
77146;SDS011;66121;52.584;9.694;2023-05-02T02:53:09;32.60;;;16.63;;
77146;SDS011;66121;52.584;9.694;2023-05-02T02:55:58;30.25;;;17.13;;
77146;SDS011;66121;52.584;9.694;2023-05-02T02:58:38;30.05;;;16.80;;
77146;SDS011;66121;52.584;9.694;2023-05-02T03:01:10;34.58;;;17.52;;
77146;SDS011;66121;52.584;9.694;2023-05-02T03:03:42;30.88;;;15.93;;
77146;SDS011;66121;52.584;9.694;2023-05-02T03:06:08;32.25;;;16.10;;
77146;SDS011;66121;52.584;9.694;2023-05-02T03:08:40;32.87;;;15.70;;
77146;SDS011;66121;52.584;9.694;2023-05-02T03:11:06;34.72;;;17.85;;
77146;SDS011;66121;52.584;9.694;2023-05-02T03:13:32;28.90;;;16.02;;
77146;SDS011;66121;52.584;9.694;2023-05-02T03:18:41;31.25;;;15.85;;
77146;SDS011;66121;52.584;9.694;2023-05-02T03:21:07;30.35;;;15.32;;
77146;SDS011;66121;52.584;9.694;2023-05-02T03:23:32;28.88;;;16.15;;
77146;SDS011;66121;52.584;9.694;2023-05-02T03:25:57;32.65;;;15.82;;
77146;SDS011;66121;52.584;9.694;2023-05-02T03:28:22;32.17;;;16.53;;
77146;SDS011;66121;52.584;9.694;2023-05-02T03:30:48;31.20;;;17.23;;
77146;SDS011;66121;52.584;9.694;2023-05-02T03:33:13;33.13;;;15.53;;
77146;SDS011;66121;52.584;9.694;2023-05-02T03:35:38;26.80;;;13.30;;
77146;SDS011;66121;52.584;9.694;2023-05-02T03:38:04;29.67;;;15.13;;
77146;SDS011;66121;52.584;9.694;2023-05-02T03:40:29;28.27;;;14.73;;
77146;SDS011;66121;52.584;9.694;2023-05-02T03:42:54;29.87;;;14.73;;
77146;SDS011;66121;52.584;9.694;2023-05-02T03:45:20;25.17;;;13.50;;
77146;SDS011;66121;52.584;9.694;2023-05-02T03:47:45;24.20;;;13.43;;
77146;SDS011;66121;52.584;9.694;2023-05-02T03:50:10;24.73;;;12.75;;
77146;SDS011;66121;52.584;9.694;2023-05-02T03:52:36;25.52;;;12.95;;
77146;SDS011;66121;52.584;9.694;2023-05-02T03:55:01;25.60;;;11.97;;
77146;SDS011;66121;52.584;9.694;2023-05-02T03:57:30;26.88;;;12.85;;
77146;SDS011;66121;52.584;9.694;2023-05-02T03:59:55;26.00;;;12.68;;
77146;SDS011;66121;52.584;9.694;2023-05-02T04:02:20;23.80;;;12.13;;
77146;SDS011;66121;52.584;9.694;2023-05-02T04:04:46;23.90;;;11.73;;
77146;SDS011;66121;52.584;9.694;2023-05-02T04:07:11;23.45;;;11.77;;
77146;SDS011;66121;52.584;9.694;2023-05-02T04:09:42;22.20;;;10.95;;
77146;SDS011;66121;52.584;9.694;2023-05-02T04:12:07;26.55;;;11.45;;
77146;SDS011;66121;52.584;9.694;2023-05-02T04:14:33;21.00;;;10.70;;
77146;SDS011;66121;52.584;9.694;2023-05-02T04:16:58;22.17;;;10.33;;
77146;SDS011;66121;52.584;9.694;2023-05-02T04:19:23;21.47;;;10.53;;
77146;SDS011;66121;52.584;9.694;2023-05-02T04:21:48;20.50;;;8.95;;
77146;SDS011;66121;52.584;9.694;2023-05-02T04:24:14;16.90;;;8.07;;
77146;SDS011;66121;52.584;9.694;2023-05-02T04:26:39;16.00;;;6.82;;
77146;SDS011;66121;52.584;9.694;2023-05-02T04:29:05;17.60;;;7.80;;
77146;SDS011;66121;52.584;9.694;2023-05-02T04:31:30;15.80;;;7.50;;
77146;SDS011;66121;52.584;9.694;2023-05-02T04:33:56;12.63;;;6.75;;
77146;SDS011;66121;52.584;9.694;2023-05-02T04:36:22;10.75;;;5.78;;
77146;SDS011;66121;52.584;9.694;2023-05-02T04:38:48;7.90;;;4.40;;
77146;SDS011;66121;52.584;9.694;2023-05-02T04:41:14;9.90;;;5.38;;
77146;SDS011;66121;52.584;9.694;2023-05-02T04:43:39;7.97;;;4.57;;
77146;SDS011;66121;52.584;9.694;2023-05-02T04:46:05;8.33;;;4.30;;
77146;SDS011;66121;52.584;9.694;2023-05-02T04:48:30;5.70;;;3.57;;
77146;SDS011;66121;52.584;9.694;2023-05-02T04:50:55;9.90;;;3.83;;
77146;SDS011;66121;52.584;9.694;2023-05-02T04:53:21;5.45;;;2.80;;
77146;SDS011;66121;52.584;9.694;2023-05-02T04:55:47;5.55;;;2.70;;
77146;SDS011;66121;52.584;9.694;2023-05-02T04:58:12;3.05;;;2.10;;
77146;SDS011;66121;52.584;9.694;2023-05-02T05:00:38;3.80;;;2.38;;
77146;SDS011;66121;52.584;9.694;2023-05-02T05:03:03;4.70;;;1.95;;
77146;SDS011;66121;52.584;9.694;2023-05-02T05:05:30;4.88;;;2.10;;
77146;SDS011;66121;52.584;9.694;2023-05-02T05:07:56;4.40;;;2.30;;
77146;SDS011;66121;52.584;9.694;2023-05-02T05:10:21;2.63;;;1.70;;
77146;SDS011;66121;52.584;9.694;2023-05-02T05:12:46;4.15;;;2.50;;
77146;SDS011;66121;52.584;9.694;2023-05-02T05:15:13;6.57;;;2.60;;
77146;SDS011;66121;52.584;9.694;2023-05-02T05:17:39;6.28;;;2.67;;
77146;SDS011;66121;52.584;9.694;2023-05-02T05:20:04;8.75;;;3.45;;
77146;SDS011;66121;52.584;9.694;2023-05-02T05:22:30;8.25;;;3.10;;
77146;SDS011;66121;52.584;9.694;2023-05-02T05:24:56;9.55;;;3.90;;
77146;SDS011;66121;52.584;9.694;2023-05-02T05:27:21;15.13;;;3.77;;
77146;SDS011;66121;52.584;9.694;2023-05-02T05:29:47;10.18;;;3.85;;
77146;SDS011;66121;52.584;9.694;2023-05-02T05:32:12;8.18;;;3.25;;
77146;SDS011;66121;52.584;9.694;2023-05-02T05:34:37;15.68;;;3.80;;
77146;SDS011;66121;52.584;9.694;2023-05-02T05:37:03;11.90;;;4.03;;
77146;SDS011;66121;52.584;9.694;2023-05-02T05:39:28;11.65;;;4.03;;
77146;SDS011;66121;52.584;9.694;2023-05-02T05:41:54;10.13;;;4.40;;
77146;SDS011;66121;52.584;9.694;2023-05-02T05:44:19;13.87;;;4.63;;
77146;SDS011;66121;52.584;9.694;2023-05-02T05:46:49;14.80;;;3.75;;
77146;SDS011;66121;52.584;9.694;2023-05-02T05:49:15;12.20;;;4.18;;
77146;SDS011;66121;52.584;9.694;2023-05-02T05:51:40;11.85;;;3.85;;
77146;SDS011;66121;52.584;9.694;2023-05-02T05:54:06;10.17;;;3.80;;
77146;SDS011;66121;52.584;9.694;2023-05-02T05:56:31;14.68;;;3.80;;
77146;SDS011;66121;52.584;9.694;2023-05-02T05:58:57;15.73;;;4.00;;
77146;SDS011;66121;52.584;9.694;2023-05-02T06:01:22;15.70;;;3.92;;
77146;SDS011;66121;52.584;9.694;2023-05-02T06:03:47;10.95;;;4.03;;
77146;SDS011;66121;52.584;9.694;2023-05-02T06:06:13;16.73;;;4.93;;
77146;SDS011;66121;52.584;9.694;2023-05-02T06:08:38;12.87;;;3.60;;
77146;SDS011;66121;52.584;9.694;2023-05-02T06:11:07;11.93;;;3.63;;
77146;SDS011;66121;52.584;9.694;2023-05-02T06:13:33;18.35;;;4.60;;
77146;SDS011;66121;52.584;9.694;2023-05-02T06:16:01;19.23;;;4.10;;
77146;SDS011;66121;52.584;9.694;2023-05-02T06:18:27;14.73;;;3.85;;
77146;SDS011;66121;52.584;9.694;2023-05-02T06:20:52;6.88;;;3.42;;
77146;SDS011;66121;52.584;9.694;2023-05-02T06:23:18;9.40;;;3.60;;
77146;SDS011;66121;52.584;9.694;2023-05-02T06:25:43;19.35;;;4.13;;
77146;SDS011;66121;52.584;9.694;2023-05-02T06:28:09;14.63;;;3.90;;
77146;SDS011;66121;52.584;9.694;2023-05-02T06:30:34;16.92;;;3.63;;
77146;SDS011;66121;52.584;9.694;2023-05-02T06:33:00;21.65;;;4.10;;
77146;SDS011;66121;52.584;9.694;2023-05-02T06:35:28;19.98;;;4.72;;
77146;SDS011;66121;52.584;9.694;2023-05-02T06:37:53;16.87;;;4.60;;
77146;SDS011;66121;52.584;9.694;2023-05-02T06:40:18;18.97;;;4.77;;
77146;SDS011;66121;52.584;9.694;2023-05-02T06:42:44;17.75;;;3.80;;
77146;SDS011;66121;52.584;9.694;2023-05-02T06:45:09;14.73;;;3.17;;
77146;SDS011;66121;52.584;9.694;2023-05-02T06:47:35;17.27;;;3.50;;
77146;SDS011;66121;52.584;9.694;2023-05-02T06:50:00;12.67;;;3.67;;
77146;SDS011;66121;52.584;9.694;2023-05-02T06:52:25;10.98;;;3.70;;
77146;SDS011;66121;52.584;9.694;2023-05-02T06:54:51;17.20;;;3.87;;
77146;SDS011;66121;52.584;9.694;2023-05-02T06:57:16;14.73;;;3.47;;
77146;SDS011;66121;52.584;9.694;2023-05-02T06:59:41;12.07;;;4.30;;
77146;SDS011;66121;52.584;9.694;2023-05-02T07:02:07;9.80;;;3.83;;
77146;SDS011;66121;52.584;9.694;2023-05-02T07:04:32;14.80;;;3.53;;
77146;SDS011;66121;52.584;9.694;2023-05-02T07:06:57;10.83;;;3.90;;
77146;SDS011;66121;52.584;9.694;2023-05-02T07:09:23;7.87;;;3.47;;
77146;SDS011;66121;52.584;9.694;2023-05-02T07:11:48;12.00;;;3.88;;
77146;SDS011;66121;52.584;9.694;2023-05-02T07:14:13;10.97;;;3.57;;
77146;SDS011;66121;52.584;9.694;2023-05-02T07:16:38;15.93;;;3.73;;
77146;SDS011;66121;52.584;9.694;2023-05-02T07:19:04;8.48;;;3.25;;
77146;SDS011;66121;52.584;9.694;2023-05-02T07:21:30;16.60;;;3.58;;
77146;SDS011;66121;52.584;9.694;2023-05-02T07:23:56;9.02;;;3.38;;
77146;SDS011;66121;52.584;9.694;2023-05-02T07:26:21;10.63;;;2.80;;
77146;SDS011;66121;52.584;9.694;2023-05-02T07:28:47;9.00;;;3.35;;
77146;SDS011;66121;52.584;9.694;2023-05-02T07:31:12;12.63;;;3.47;;
77146;SDS011;66121;52.584;9.694;2023-05-02T07:33:38;10.88;;;3.13;;
77146;SDS011;66121;52.584;9.694;2023-05-02T07:36:03;5.22;;;2.97;;
77146;SDS011;66121;52.584;9.694;2023-05-02T07:38:28;9.60;;;2.80;;
77146;SDS011;66121;52.584;9.694;2023-05-02T07:40:56;10.33;;;2.80;;
77146;SDS011;66121;52.584;9.694;2023-05-02T07:43:22;8.48;;;3.22;;
77146;SDS011;66121;52.584;9.694;2023-05-02T07:45:48;9.88;;;3.40;;
77146;SDS011;66121;52.584;9.694;2023-05-02T07:48:13;5.10;;;2.40;;
77146;SDS011;66121;52.584;9.694;2023-05-02T07:50:38;7.87;;;2.90;;
77146;SDS011;66121;52.584;9.694;2023-05-02T07:53:03;8.68;;;2.45;;
77146;SDS011;66121;52.584;9.694;2023-05-02T07:55:29;13.95;;;3.00;;
77146;SDS011;66121;52.584;9.694;2023-05-02T07:57:55;11.95;;;3.30;;
77146;SDS011;66121;52.584;9.694;2023-05-02T08:00:20;8.50;;;2.67;;
77146;SDS011;66121;52.584;9.694;2023-05-02T08:02:45;6.87;;;2.60;;
77146;SDS011;66121;52.584;9.694;2023-05-02T08:05:11;6.63;;;3.00;;
77146;SDS011;66121;52.584;9.694;2023-05-02T08:07:37;6.43;;;2.60;;
77146;SDS011;66121;52.584;9.694;2023-05-02T08:10:02;8.47;;;2.30;;
77146;SDS011;66121;52.584;9.694;2023-05-02T08:12:28;5.70;;;2.85;;
77146;SDS011;66121;52.584;9.694;2023-05-02T08:14:53;7.63;;;2.47;;
77146;SDS011;66121;52.584;9.694;2023-05-02T08:17:19;6.60;;;2.38;;
77146;SDS011;66121;52.584;9.694;2023-05-02T08:19:45;7.43;;;3.20;;
77146;SDS011;66121;52.584;9.694;2023-05-02T08:22:10;8.93;;;2.20;;
77146;SDS011;66121;52.584;9.694;2023-05-02T08:24:35;6.93;;;2.90;;
77146;SDS011;66121;52.584;9.694;2023-05-02T08:27:03;6.55;;;2.88;;
77146;SDS011;66121;52.584;9.694;2023-05-02T08:29:29;8.57;;;2.40;;
77146;SDS011;66121;52.584;9.694;2023-05-02T08:31:55;7.18;;;2.70;;
77146;SDS011;66121;52.584;9.694;2023-05-02T08:34:20;8.13;;;2.67;;
77146;SDS011;66121;52.584;9.694;2023-05-02T08:36:46;8.33;;;2.83;;
77146;SDS011;66121;52.584;9.694;2023-05-02T08:39:11;5.57;;;2.75;;
77146;SDS011;66121;52.584;9.694;2023-05-02T08:41:37;8.25;;;2.38;;
77146;SDS011;66121;52.584;9.694;2023-05-02T08:44:02;10.48;;;3.72;;
77146;SDS011;66121;52.584;9.694;2023-05-02T08:46:29;11.57;;;3.13;;
77146;SDS011;66121;52.584;9.694;2023-05-02T08:48:59;10.27;;;3.15;;
77146;SDS011;66121;52.584;9.694;2023-05-02T08:51:25;7.88;;;2.83;;
77146;SDS011;66121;52.584;9.694;2023-05-02T08:53:52;13.48;;;3.13;;
77146;SDS011;66121;52.584;9.694;2023-05-02T08:56:19;8.15;;;2.50;;
77146;SDS011;66121;52.584;9.694;2023-05-02T08:58:45;7.57;;;2.42;;
77146;SDS011;66121;52.584;9.694;2023-05-02T09:01:14;6.22;;;2.80;;
77146;SDS011;66121;52.584;9.694;2023-05-02T09:03:44;8.52;;;3.05;;
77146;SDS011;66121;52.584;9.694;2023-05-02T09:06:12;8.82;;;3.28;;
77146;SDS011;66121;52.584;9.694;2023-05-02T09:08:42;8.27;;;3.30;;
77146;SDS011;66121;52.584;9.694;2023-05-02T09:11:09;7.20;;;2.40;;
77146;SDS011;66121;52.584;9.694;2023-05-02T09:13:36;4.93;;;2.58;;
77146;SDS011;66121;52.584;9.694;2023-05-02T09:16:09;7.55;;;2.75;;
77146;SDS011;66121;52.584;9.694;2023-05-02T09:18:39;5.97;;;2.28;;
77146;SDS011;66121;52.584;9.694;2023-05-02T09:21:10;7.18;;;2.40;;
77146;SDS011;66121;52.584;9.694;2023-05-02T09:23:41;7.40;;;2.65;;
77146;SDS011;66121;52.584;9.694;2023-05-02T09:26:21;16.98;;;3.50;;
77146;SDS011;66121;52.584;9.694;2023-05-02T09:28:51;6.10;;;2.50;;
77146;SDS011;66121;52.584;9.694;2023-05-02T09:31:18;7.07;;;2.60;;
77146;SDS011;66121;52.584;9.694;2023-05-02T09:33:50;10.52;;;3.65;;
77146;SDS011;66121;52.584;9.694;2023-05-02T09:36:16;8.68;;;3.03;;
77146;SDS011;66121;52.584;9.694;2023-05-02T09:38:43;8.27;;;3.00;;
77146;SDS011;66121;52.584;9.694;2023-05-02T09:41:12;8.85;;;2.80;;
77146;SDS011;66121;52.584;9.694;2023-05-02T09:43:38;8.75;;;3.55;;
77146;SDS011;66121;52.584;9.694;2023-05-02T09:46:08;6.50;;;2.92;;
77146;SDS011;66121;52.584;9.694;2023-05-02T09:51:20;10.77;;;3.88;;
77146;SDS011;66121;52.584;9.694;2023-05-02T09:53:46;7.18;;;3.13;;
77146;SDS011;66121;52.584;9.694;2023-05-02T09:56:12;9.70;;;3.47;;
77146;SDS011;66121;52.584;9.694;2023-05-02T09:58:38;8.07;;;3.28;;
77146;SDS011;66121;52.584;9.694;2023-05-02T10:01:03;8.88;;;3.33;;
77146;SDS011;66121;52.584;9.694;2023-05-02T10:03:29;8.55;;;3.40;;
77146;SDS011;66121;52.584;9.694;2023-05-02T10:05:56;13.48;;;3.72;;
77146;SDS011;66121;52.584;9.694;2023-05-02T10:08:24;10.50;;;3.28;;
77146;SDS011;66121;52.584;9.694;2023-05-02T10:10:52;12.63;;;3.30;;
77146;SDS011;66121;52.584;9.694;2023-05-02T10:13:22;9.48;;;3.65;;
77146;SDS011;66121;52.584;9.694;2023-05-02T10:15:57;9.68;;;3.47;;
77146;SDS011;66121;52.584;9.694;2023-05-02T10:18:26;16.63;;;3.47;;
77146;SDS011;66121;52.584;9.694;2023-05-02T10:20:57;8.68;;;3.03;;
77146;SDS011;66121;52.584;9.694;2023-05-02T10:23:26;6.65;;;3.10;;
77146;SDS011;66121;52.584;9.694;2023-05-02T10:25:56;10.20;;;3.80;;
77146;SDS011;66121;52.584;9.694;2023-05-02T10:28:22;7.82;;;3.33;;
77146;SDS011;66121;52.584;9.694;2023-05-02T10:30:48;11.50;;;3.80;;
77146;SDS011;66121;52.584;9.694;2023-05-02T10:33:15;10.27;;;3.40;;
77146;SDS011;66121;52.584;9.694;2023-05-02T10:35:43;9.70;;;4.18;;
77146;SDS011;66121;52.584;9.694;2023-05-02T10:38:10;7.97;;;3.88;;
77146;SDS011;66121;52.584;9.694;2023-05-02T10:40:37;10.63;;;3.25;;
77146;SDS011;66121;52.584;9.694;2023-05-02T10:43:04;11.52;;;3.55;;
77146;SDS011;66121;52.584;9.694;2023-05-02T10:45:31;6.90;;;2.97;;
77146;SDS011;66121;52.584;9.694;2023-05-02T10:48:14;10.80;;;2.80;;
77146;SDS011;66121;52.584;9.694;2023-05-02T10:50:58;12.02;;;3.20;;
77146;SDS011;66121;52.584;9.694;2023-05-02T10:53:30;6.63;;;3.05;;
77146;SDS011;66121;52.584;9.694;2023-05-02T10:56:12;6.85;;;2.80;;
77146;SDS011;66121;52.584;9.694;2023-05-02T10:58:38;6.65;;;2.90;;
77146;SDS011;66121;52.584;9.694;2023-05-02T11:06:34;5.55;;;2.80;;
77146;SDS011;66121;52.584;9.694;2023-05-02T11:11:42;6.82;;;2.80;;
77146;SDS011;66121;52.584;9.694;2023-05-02T11:14:09;11.75;;;3.15;;
77146;SDS011;66121;52.584;9.694;2023-05-02T11:24:42;9.98;;;3.22;;
77146;SDS011;66121;52.584;9.694;2023-05-02T11:29:56;6.38;;;3.00;;
77146;SDS011;66121;52.584;9.694;2023-05-02T11:32:22;8.85;;;2.90;;
77146;SDS011;66121;52.584;9.694;2023-05-02T11:34:49;6.82;;;2.92;;
77146;SDS011;66121;52.584;9.694;2023-05-02T11:37:16;14.55;;;3.28;;
77146;SDS011;66121;52.584;9.694;2023-05-02T11:39:43;9.40;;;3.22;;
77146;SDS011;66121;52.584;9.694;2023-05-02T11:42:08;8.73;;;3.75;;
77146;SDS011;66121;52.584;9.694;2023-05-02T11:44:36;5.97;;;3.22;;
77146;SDS011;66121;52.584;9.694;2023-05-02T11:47:19;8.30;;;4.05;;
77146;SDS011;66121;52.584;9.694;2023-05-02T11:49:45;6.97;;;4.13;;
77146;SDS011;66121;52.584;9.694;2023-05-02T11:52:10;9.40;;;3.55;;
77146;SDS011;66121;52.584;9.694;2023-05-02T11:54:35;6.55;;;3.20;;
77146;SDS011;66121;52.584;9.694;2023-05-02T11:57:01;6.10;;;2.73;;
77146;SDS011;66121;52.584;9.694;2023-05-02T11:59:26;8.10;;;3.47;;
77146;SDS011;66121;52.584;9.694;2023-05-02T12:01:51;10.77;;;4.55;;
77146;SDS011;66121;52.584;9.694;2023-05-02T12:04:19;7.88;;;4.43;;
77146;SDS011;66121;52.584;9.694;2023-05-02T12:06:56;7.90;;;4.70;;
77146;SDS011;66121;52.584;9.694;2023-05-02T12:09:22;8.10;;;4.22;;
77146;SDS011;66121;52.584;9.694;2023-05-02T12:11:51;12.18;;;4.35;;
77146;SDS011;66121;52.584;9.694;2023-05-02T12:14:24;10.02;;;4.00;;
77146;SDS011;66121;52.584;9.694;2023-05-02T12:16:54;8.13;;;3.90;;
77146;SDS011;66121;52.584;9.694;2023-05-02T12:19:20;7.63;;;3.95;;
77146;SDS011;66121;52.584;9.694;2023-05-02T12:21:46;10.65;;;3.80;;
77146;SDS011;66121;52.584;9.694;2023-05-02T12:24:12;7.32;;;3.58;;
77146;SDS011;66121;52.584;9.694;2023-05-02T12:26:38;7.68;;;3.20;;
77146;SDS011;66121;52.584;9.694;2023-05-02T12:29:04;5.85;;;3.05;;
77146;SDS011;66121;52.584;9.694;2023-05-02T12:31:31;7.22;;;2.92;;
77146;SDS011;66121;52.584;9.694;2023-05-02T12:33:57;8.68;;;3.15;;
77146;SDS011;66121;52.584;9.694;2023-05-02T12:36:24;7.55;;;3.33;;
77146;SDS011;66121;52.584;9.694;2023-05-02T12:38:55;6.13;;;2.90;;
77146;SDS011;66121;52.584;9.694;2023-05-02T12:41:30;8.52;;;2.65;;
77146;SDS011;66121;52.584;9.694;2023-05-02T12:44:02;7.97;;;2.80;;
77146;SDS011;66121;52.584;9.694;2023-05-02T12:46:28;7.40;;;3.53;;
77146;SDS011;66121;52.584;9.694;2023-05-02T12:49:04;6.53;;;2.88;;
77146;SDS011;66121;52.584;9.694;2023-05-02T12:51:36;5.30;;;2.40;;
77146;SDS011;66121;52.584;9.694;2023-05-02T12:54:02;7.18;;;2.45;;
77146;SDS011;66121;52.584;9.694;2023-05-02T12:56:29;6.47;;;2.50;;
77146;SDS011;66121;52.584;9.694;2023-05-02T12:58:58;6.28;;;2.63;;
77146;SDS011;66121;52.584;9.694;2023-05-02T13:01:25;5.82;;;2.63;;
77146;SDS011;66121;52.584;9.694;2023-05-02T13:03:51;3.53;;;2.45;;
77146;SDS011;66121;52.584;9.694;2023-05-02T13:06:16;4.82;;;2.58;;
77146;SDS011;66121;52.584;9.694;2023-05-02T13:08:42;5.55;;;2.13;;
77146;SDS011;66121;52.584;9.694;2023-05-02T13:11:07;3.50;;;1.80;;
77146;SDS011;66121;52.584;9.694;2023-05-02T13:13:33;3.70;;;2.20;;
77146;SDS011;66121;52.584;9.694;2023-05-02T13:15:59;4.13;;;2.10;;
77146;SDS011;66121;52.584;9.694;2023-05-02T13:18:24;5.13;;;1.92;;
77146;SDS011;66121;52.584;9.694;2023-05-02T13:20:51;5.20;;;2.28;;
77146;SDS011;66121;52.584;9.694;2023-05-02T13:23:17;5.18;;;2.08;;
77146;SDS011;66121;52.584;9.694;2023-05-02T13:25:42;4.10;;;2.05;;
77146;SDS011;66121;52.584;9.694;2023-05-02T13:28:08;4.55;;;1.98;;
77146;SDS011;66121;52.584;9.694;2023-05-02T13:30:33;5.60;;;1.90;;
77146;SDS011;66121;52.584;9.694;2023-05-02T13:32:58;6.40;;;2.10;;
77146;SDS011;66121;52.584;9.694;2023-05-02T13:35:24;6.82;;;2.13;;
77146;SDS011;66121;52.584;9.694;2023-05-02T13:37:50;3.60;;;1.90;;
77146;SDS011;66121;52.584;9.694;2023-05-02T13:40:15;6.15;;;1.80;;
77146;SDS011;66121;52.584;9.694;2023-05-02T13:42:40;3.57;;;1.80;;
77146;SDS011;66121;52.584;9.694;2023-05-02T13:45:06;7.50;;;1.60;;
77146;SDS011;66121;52.584;9.694;2023-05-02T13:47:32;2.90;;;1.58;;
77146;SDS011;66121;52.584;9.694;2023-05-02T13:49:57;2.10;;;1.45;;
77146;SDS011;66121;52.584;9.694;2023-05-02T13:52:23;4.80;;;1.80;;
77146;SDS011;66121;52.584;9.694;2023-05-02T13:54:48;4.80;;;1.73;;
77146;SDS011;66121;52.584;9.694;2023-05-02T13:57:13;3.13;;;1.97;;
77146;SDS011;66121;52.584;9.694;2023-05-02T13:59:39;4.35;;;1.95;;
77146;SDS011;66121;52.584;9.694;2023-05-02T14:02:04;4.95;;;1.90;;
77146;SDS011;66121;52.584;9.694;2023-05-02T14:04:29;4.20;;;1.75;;
77146;SDS011;66121;52.584;9.694;2023-05-02T14:06:55;3.92;;;2.00;;
77146;SDS011;66121;52.584;9.694;2023-05-02T14:09:20;5.23;;;2.30;;
77146;SDS011;66121;52.584;9.694;2023-05-02T14:11:46;4.32;;;1.77;;
77146;SDS011;66121;52.584;9.694;2023-05-02T14:14:12;3.33;;;2.05;;
77146;SDS011;66121;52.584;9.694;2023-05-02T14:16:39;5.78;;;1.90;;
77146;SDS011;66121;52.584;9.694;2023-05-02T14:19:04;5.18;;;1.50;;
77146;SDS011;66121;52.584;9.694;2023-05-02T14:21:29;2.63;;;1.63;;
77146;SDS011;66121;52.584;9.694;2023-05-02T14:23:55;4.55;;;1.77;;
77146;SDS011;66121;52.584;9.694;2023-05-02T14:26:21;4.13;;;1.63;;
77146;SDS011;66121;52.584;9.694;2023-05-02T14:28:46;3.63;;;1.80;;
77146;SDS011;66121;52.584;9.694;2023-05-02T14:31:11;2.63;;;1.60;;
77146;SDS011;66121;52.584;9.694;2023-05-02T14:33:37;2.55;;;1.70;;
77146;SDS011;66121;52.584;9.694;2023-05-02T14:36:03;5.87;;;2.40;;
77146;SDS011;66121;52.584;9.694;2023-05-02T14:38:28;7.22;;;2.33;;
77146;SDS011;66121;52.584;9.694;2023-05-02T14:40:54;9.90;;;2.47;;
77146;SDS011;66121;52.584;9.694;2023-05-02T14:43:19;5.10;;;2.10;;
77146;SDS011;66121;52.584;9.694;2023-05-02T14:45:45;5.55;;;2.00;;
77146;SDS011;66121;52.584;9.694;2023-05-02T14:48:10;4.93;;;2.30;;
77146;SDS011;66121;52.584;9.694;2023-05-02T14:50:38;9.35;;;2.33;;
77146;SDS011;66121;52.584;9.694;2023-05-02T14:53:03;3.13;;;2.10;;
77146;SDS011;66121;52.584;9.694;2023-05-02T14:55:29;4.82;;;2.50;;
77146;SDS011;66121;52.584;9.694;2023-05-02T14:57:54;5.70;;;1.83;;
77146;SDS011;66121;52.584;9.694;2023-05-02T15:00:20;4.40;;;2.42;;
77146;SDS011;66121;52.584;9.694;2023-05-02T15:02:45;5.88;;;2.00;;
77146;SDS011;66121;52.584;9.694;2023-05-02T15:05:10;4.33;;;2.00;;
77146;SDS011;66121;52.584;9.694;2023-05-02T15:07:36;5.88;;;2.17;;
77146;SDS011;66121;52.584;9.694;2023-05-02T15:10:02;7.05;;;2.22;;
77146;SDS011;66121;52.584;9.694;2023-05-02T15:12:28;4.63;;;2.05;;
77146;SDS011;66121;52.584;9.694;2023-05-02T15:14:53;4.07;;;2.40;;
77146;SDS011;66121;52.584;9.694;2023-05-02T15:17:18;5.37;;;2.50;;
77146;SDS011;66121;52.584;9.694;2023-05-02T15:19:43;7.77;;;2.40;;